createdAt,value
2018-08-11T00:02:50.913Z,17.10
2018-08-11T00:05:19.534Z,17.10
2018-08-11T00:07:48.764Z,17.00
2018-08-11T00:10:17.699Z,17.00
2018-08-11T00:12:46.302Z,17.00
2018-08-11T00:15:16.411Z,16.90
2018-08-11T00:17:45.345Z,16.90
2018-08-11T00:20:17.757Z,16.90
2018-08-11T00:22:46.382Z,16.90
2018-08-11T00:25:16.322Z,16.90
2018-08-11T00:27:44.942Z,16.90
2018-08-11T00:30:15.984Z,16.90
2018-08-11T00:32:44.632Z,16.80
2018-08-11T00:35:14.332Z,16.80
2018-08-11T00:37:43.770Z,16.80
2018-08-11T00:40:14.843Z,16.80
2018-08-11T00:42:44.743Z,16.80
2018-08-11T00:45:14.510Z,16.70
2018-08-11T00:47:43.501Z,16.70
2018-08-11T00:50:13.831Z,16.70
2018-08-11T00:52:42.411Z,16.70
2018-08-11T00:55:12.645Z,16.70
2018-08-11T00:57:41.593Z,16.70
2018-08-11T01:00:14.717Z,16.70
2018-08-11T01:02:43.807Z,16.70
2018-08-11T01:05:14.756Z,16.70
2018-08-11T01:07:43.958Z,16.60
2018-08-11T01:10:13.323Z,16.60
2018-08-11T01:12:42.883Z,16.60
2018-08-11T01:15:13.875Z,16.60
2018-08-11T01:17:42.731Z,16.50
2018-08-11T01:20:12.259Z,16.40
2018-08-11T01:22:41.902Z,16.50
2018-08-11T01:25:11.240Z,16.50
2018-08-11T01:27:39.903Z,16.50
2018-08-11T01:30:11.568Z,16.40
2018-08-11T01:32:40.181Z,16.50
2018-08-11T01:35:10.070Z,16.40
2018-08-11T01:37:39.814Z,16.40
2018-08-11T01:40:10.277Z,16.40
2018-08-11T01:42:39.510Z,16.40
2018-08-11T01:45:09.292Z,16.40
2018-08-11T01:47:38.484Z,16.30
2018-08-11T01:50:08.119Z,16.30
2018-08-11T01:52:36.914Z,16.40
2018-08-11T01:55:05.699Z,16.30
2018-08-11T01:57:34.471Z,16.40
2018-08-11T02:00:03.453Z,16.30
2018-08-11T02:02:32.053Z,16.30
2018-08-11T02:05:00.622Z,16.20
2018-08-11T02:07:29.281Z,16.10
2018-08-11T02:09:57.922Z,16.10
2018-08-11T02:12:26.547Z,16.20
2018-08-11T02:14:55.103Z,16.20
2018-08-11T02:17:23.699Z,16.10
2018-08-11T02:19:52.317Z,16.10
2018-08-11T02:22:20.939Z,16.10
2018-08-11T02:24:49.718Z,16.10
2018-08-11T02:27:18.515Z,16.00
2018-08-11T02:29:47.147Z,16.00
2018-08-11T02:32:15.702Z,16.00
2018-08-11T02:34:44.243Z,16.00
2018-08-11T02:37:12.807Z,15.90
2018-08-11T02:39:41.385Z,16.00
2018-08-11T02:42:10.097Z,16.00
2018-08-11T02:44:38.730Z,16.00
2018-08-11T02:47:07.304Z,15.90
2018-08-11T02:49:35.889Z,15.90
2018-08-11T02:52:04.570Z,15.90
2018-08-11T02:54:33.139Z,15.80
2018-08-11T02:57:01.699Z,15.80
2018-08-11T02:59:30.256Z,15.90
2018-08-11T03:01:58.904Z,15.80
2018-08-11T03:04:27.455Z,15.90
2018-08-11T03:06:56.023Z,15.90
2018-08-11T03:09:24.603Z,15.90
2018-08-11T03:11:53.166Z,15.80
2018-08-11T03:14:21.847Z,15.80
2018-08-11T03:16:50.442Z,15.80
2018-08-11T03:19:19.287Z,15.70
2018-08-11T03:21:47.846Z,15.70
2018-08-11T03:24:16.404Z,15.70
2018-08-11T03:26:44.967Z,15.70
2018-08-11T03:29:13.508Z,15.90
2018-08-11T03:31:42.072Z,15.70
2018-08-11T03:34:10.691Z,15.70
2018-08-11T03:36:39.536Z,15.80
2018-08-11T03:39:10.492Z,15.70
2018-08-11T03:41:39.378Z,15.70
2018-08-11T03:44:08.273Z,15.80
2018-08-11T03:46:36.846Z,15.80
2018-08-11T03:49:05.426Z,15.70
2018-08-11T03:51:34.002Z,15.70
2018-08-11T03:54:02.634Z,15.70
2018-08-11T03:56:31.492Z,15.70
2018-08-11T03:59:00.069Z,15.70
2018-08-11T04:01:28.659Z,15.70
2018-08-11T04:03:57.206Z,15.70
2018-08-11T04:06:25.777Z,15.70
2018-08-11T04:08:54.403Z,15.80
2018-08-11T04:11:23.022Z,15.70
2018-08-11T04:13:51.581Z,15.70
2018-08-11T04:16:20.602Z,15.70
2018-08-11T04:18:49.192Z,15.80
2018-08-11T04:21:17.759Z,15.80
2018-08-11T04:23:46.387Z,15.70
2018-08-11T04:26:21.317Z,15.70
2018-08-11T04:28:50.280Z,15.80
2018-08-11T04:31:18.887Z,15.80
2018-08-11T04:33:47.451Z,15.70
2018-08-11T04:36:16.002Z,15.70
2018-08-11T04:38:44.551Z,15.80
2018-08-11T04:41:13.098Z,15.80
2018-08-11T04:43:41.659Z,15.90
2018-08-11T04:46:10.486Z,15.90
2018-08-11T04:48:39.031Z,15.90
2018-08-11T04:51:07.710Z,15.90
2018-08-11T04:53:36.596Z,15.90
2018-08-11T04:56:05.215Z,16.00
2018-08-11T04:58:33.771Z,15.90
2018-08-11T05:01:02.331Z,15.90
2018-08-11T05:03:30.958Z,16.00
2018-08-11T05:05:59.515Z,16.00
2018-08-11T05:08:28.075Z,16.10
2018-08-11T05:10:56.655Z,16.20
2018-08-11T05:13:25.210Z,16.20
2018-08-11T05:15:53.777Z,16.20
2018-08-11T05:18:22.362Z,16.30
2018-08-11T05:20:51.286Z,16.30
2018-08-11T05:23:19.987Z,16.30
2018-08-11T05:25:48.550Z,16.30
2018-08-11T05:28:17.143Z,16.30
2018-08-11T05:30:45.746Z,16.40
2018-08-11T05:33:14.346Z,16.40
2018-08-11T05:35:42.967Z,16.50
2018-08-11T05:38:11.855Z,16.50
2018-08-11T05:40:40.613Z,16.50
2018-08-11T05:43:09.195Z,16.60
2018-08-11T05:45:38.055Z,16.60
2018-08-11T05:48:06.875Z,16.60
2018-08-11T05:50:35.452Z,16.70
2018-08-11T05:53:04.041Z,16.70
2018-08-11T05:55:32.862Z,16.70
2018-08-11T05:58:01.463Z,16.80
2018-08-11T06:00:30.057Z,16.80
2018-08-11T06:02:58.670Z,16.80
2018-08-11T06:05:27.234Z,16.90
2018-08-11T06:07:55.823Z,17.00
2018-08-11T06:10:24.432Z,17.00
2018-08-11T06:12:53.279Z,17.00
2018-08-11T06:15:21.874Z,17.10
2018-08-11T06:17:50.695Z,17.10
2018-08-11T06:20:19.338Z,17.20
2018-08-11T06:22:47.915Z,17.20
2018-08-11T06:25:16.471Z,17.30
2018-08-11T06:27:45.057Z,17.30
2018-08-11T06:30:14.256Z,17.30
2018-08-11T06:32:42.883Z,17.40
2018-08-11T06:35:11.467Z,17.40
2018-08-11T06:37:40.058Z,17.50
2018-08-11T06:40:08.679Z,17.60
2018-08-11T06:42:37.247Z,17.60
2018-08-11T06:45:06.100Z,17.70
2018-08-11T06:47:34.859Z,17.90
2018-08-11T06:50:03.475Z,17.90
2018-08-11T06:52:32.076Z,17.90
2018-08-11T06:55:00.689Z,18.00
2018-08-11T06:57:29.343Z,18.00
2018-08-11T06:59:57.934Z,18.10
2018-08-11T07:02:26.651Z,18.10
2018-08-11T07:04:55.659Z,18.20
2018-08-11T07:07:24.242Z,18.20
2018-08-11T07:09:52.795Z,18.30
2018-08-11T07:12:21.664Z,18.30
2018-08-11T07:14:50.277Z,18.30
2018-08-11T07:17:19.164Z,18.40
2018-08-11T07:19:47.718Z,18.40
2018-08-11T07:22:16.476Z,18.60
2018-08-11T07:24:45.191Z,18.80
2018-08-11T07:27:13.745Z,18.70
2018-08-11T07:29:42.315Z,18.70
2018-08-11T07:32:10.942Z,18.60
2018-08-11T07:34:39.661Z,18.70
2018-08-11T07:37:08.343Z,18.80
2018-08-11T07:39:37.033Z,18.90
2018-08-11T07:42:05.672Z,19.00
2018-08-11T07:44:34.265Z,19.20
2018-08-11T07:47:02.822Z,19.30
2018-08-11T07:49:31.388Z,19.20
2018-08-11T07:51:59.986Z,19.20
2018-08-11T07:54:28.584Z,19.30
2018-08-11T07:56:57.173Z,19.30
2018-08-11T07:59:25.795Z,19.40
2018-08-11T08:01:54.357Z,19.60
2018-08-11T08:04:23.035Z,20.00
2018-08-11T08:06:51.614Z,20.00
2018-08-11T08:09:21.115Z,20.00
2018-08-11T08:11:49.684Z,20.20
2018-08-11T08:14:18.249Z,20.30
2018-08-11T08:16:46.886Z,20.40
2018-08-11T08:19:15.522Z,20.70
2018-08-11T08:21:44.077Z,20.70
2018-08-11T08:24:12.651Z,20.70
2018-08-11T08:26:41.490Z,20.70
2018-08-11T08:29:10.048Z,20.90
2018-08-11T08:31:38.770Z,21.00
2018-08-11T08:34:07.419Z,20.90
2018-08-11T08:36:35.982Z,21.10
2018-08-11T08:39:08.186Z,21.30
2018-08-11T08:41:36.785Z,21.30
2018-08-11T08:44:05.467Z,21.50
2018-08-11T08:46:34.210Z,21.50
2018-08-11T08:49:02.826Z,21.30
2018-08-11T08:51:31.615Z,21.40
2018-08-11T08:54:00.258Z,21.80
2018-08-11T08:56:28.875Z,22.00
2018-08-11T08:58:57.664Z,21.70
2018-08-11T09:01:26.274Z,21.60
2018-08-11T09:03:54.972Z,21.90
2018-08-11T09:06:23.547Z,22.30
2018-08-11T09:08:52.228Z,22.30
2018-08-11T09:11:20.826Z,22.40
2018-08-11T09:13:49.641Z,22.80
2018-08-11T09:16:18.250Z,23.00
2018-08-11T09:18:46.814Z,23.20
2018-08-11T09:21:15.399Z,23.10
2018-08-11T09:23:44.098Z,23.20
2018-08-11T09:26:12.921Z,23.20
2018-08-11T09:28:41.582Z,23.40
2018-08-11T09:31:10.183Z,23.40
2018-08-11T09:33:38.892Z,23.20
2018-08-11T09:36:07.890Z,23.20
2018-08-11T09:38:36.527Z,23.50
2018-08-11T09:41:05.146Z,23.60
2018-08-11T09:43:33.759Z,24.00
2018-08-11T09:46:02.448Z,23.90
2018-08-11T09:48:31.081Z,23.90
2018-08-11T09:50:59.931Z,24.30
2018-08-11T09:53:28.651Z,24.00
2018-08-11T09:55:57.271Z,23.70
2018-08-11T09:58:25.859Z,23.80
2018-08-11T10:00:57.446Z,23.50
2018-08-11T10:03:26.582Z,23.80
2018-08-11T10:05:55.195Z,24.10
2018-08-11T10:08:24.163Z,23.80
2018-08-11T10:10:52.808Z,23.50
2018-08-11T10:13:21.567Z,23.90
2018-08-11T10:15:50.169Z,24.30
2018-08-11T10:18:18.727Z,24.00
2018-08-11T10:20:47.592Z,24.40
2018-08-11T10:23:16.164Z,24.40
2018-08-11T10:25:44.757Z,24.40
2018-08-11T10:28:13.327Z,24.70
2018-08-11T10:30:41.871Z,25.00
2018-08-11T10:33:10.415Z,25.10
2018-08-11T10:35:38.991Z,25.10
2018-08-11T10:38:07.784Z,25.20
2018-08-11T10:40:36.430Z,25.30
2018-08-11T10:43:04.974Z,25.50
2018-08-11T10:45:33.613Z,25.70
2018-08-11T10:48:02.160Z,25.30
2018-08-11T10:50:30.997Z,25.30
2018-08-11T10:52:59.550Z,25.40
2018-08-11T10:55:28.111Z,25.10
2018-08-11T10:57:56.671Z,25.00
2018-08-11T11:00:25.217Z,25.10
2018-08-11T11:02:54.031Z,25.40
2018-08-11T11:05:22.572Z,25.60
2018-08-11T11:07:51.128Z,25.20
2018-08-11T11:10:19.723Z,25.10
2018-08-11T11:12:48.406Z,24.80
2018-08-11T11:15:17.011Z,24.70
2018-08-11T11:17:45.710Z,24.80
2018-08-11T11:20:14.628Z,25.10
2018-08-11T11:22:43.195Z,25.30
2018-08-11T11:25:11.794Z,25.30
2018-08-11T11:27:40.989Z,25.40
2018-08-11T11:30:09.643Z,25.40
2018-08-11T11:32:39.103Z,25.70
2018-08-11T11:35:07.799Z,25.90
2018-08-11T11:37:36.394Z,25.50
2018-08-11T11:40:05.655Z,25.70
2018-08-11T11:42:34.254Z,26.10
2018-08-11T11:45:03.001Z,26.40
2018-08-11T11:47:31.597Z,25.80
2018-08-11T11:50:00.204Z,25.30
2018-08-11T11:52:28.876Z,25.40
2018-08-11T11:54:57.514Z,25.80
2018-08-11T11:57:26.096Z,26.10
2018-08-11T11:59:54.755Z,26.40
2018-08-11T12:02:23.598Z,26.20
2018-08-11T12:04:52.163Z,26.50
2018-08-11T12:07:20.762Z,26.70
2018-08-11T12:09:49.330Z,26.60
2018-08-11T12:12:17.872Z,26.50
2018-08-11T12:14:46.407Z,26.20
2018-08-11T12:17:14.962Z,25.90
2018-08-11T12:19:43.536Z,26.10
2018-08-11T12:22:12.087Z,26.40
2018-08-11T12:24:40.773Z,26.90
2018-08-11T12:27:09.327Z,26.90
2018-08-11T12:29:37.875Z,26.40
2018-08-11T12:32:06.462Z,26.30
2018-08-11T12:34:35.049Z,26.60
2018-08-11T12:37:03.763Z,26.60
2018-08-11T12:39:32.353Z,26.70
2018-08-11T12:42:00.938Z,26.60
2018-08-11T12:44:29.507Z,26.30
2018-08-11T12:46:58.035Z,26.40
2018-08-11T12:49:26.597Z,26.20
2018-08-11T12:51:55.167Z,25.70
2018-08-11T12:54:23.759Z,25.60
2018-08-11T12:56:52.347Z,25.70
2018-08-11T12:59:20.934Z,26.10
2018-08-11T13:01:49.518Z,26.50
2018-08-11T13:04:18.068Z,26.60
2018-08-11T13:06:46.692Z,26.80
2018-08-11T13:09:15.288Z,26.00
2018-08-11T13:11:44.102Z,25.40
2018-08-11T13:14:12.648Z,26.00
2018-08-11T13:16:41.230Z,25.90
2018-08-11T13:19:09.841Z,25.30
2018-08-11T13:21:38.419Z,25.10
2018-08-11T13:24:07.018Z,25.00
2018-08-11T13:26:35.600Z,25.30
2018-08-11T13:29:04.295Z,25.90
2018-08-11T13:31:32.843Z,26.20
2018-08-11T13:34:01.419Z,26.50
2018-08-11T13:36:30.003Z,26.10
2018-08-11T13:38:58.741Z,26.20
2018-08-11T13:41:27.419Z,26.50
2018-08-11T13:43:55.967Z,26.50
2018-08-11T13:46:24.692Z,26.50
2018-08-11T13:48:53.275Z,26.60
2018-08-11T13:51:21.891Z,26.30
2018-08-11T13:53:50.471Z,26.60
2018-08-11T13:56:19.016Z,26.90
2018-08-11T13:58:47.566Z,26.90
2018-08-11T14:01:16.151Z,27.00
2018-08-11T14:03:44.818Z,27.30
2018-08-11T14:06:13.360Z,27.20
2018-08-11T14:08:41.918Z,27.10
2018-08-11T14:11:10.583Z,27.30
2018-08-11T14:13:39.146Z,26.90
2018-08-11T14:16:07.754Z,26.90
2018-08-11T14:18:36.371Z,27.20
2018-08-11T14:21:05.025Z,27.10
2018-08-11T14:23:33.576Z,27.00
2018-08-11T14:26:02.486Z,26.90
2018-08-11T14:28:31.070Z,27.10
2018-08-11T14:30:59.676Z,27.30
2018-08-11T14:33:28.375Z,27.30
2018-08-11T14:35:56.974Z,27.10
2018-08-11T14:38:25.547Z,27.00
2018-08-11T14:40:54.174Z,26.40
2018-08-11T14:43:22.768Z,26.10
2018-08-11T14:45:51.387Z,26.30
2018-08-11T14:48:19.960Z,26.40
2018-08-11T14:50:48.491Z,26.20
2018-08-11T14:53:17.103Z,26.00
2018-08-11T14:55:45.702Z,25.90
2018-08-11T14:58:14.258Z,25.90
2018-08-11T15:00:42.814Z,25.70
2018-08-11T15:03:11.446Z,25.40
2018-08-11T15:05:40.063Z,25.10
2018-08-11T15:08:08.649Z,24.60
2018-08-11T15:10:37.243Z,24.10
2018-08-11T15:13:06.004Z,24.10
2018-08-11T15:15:34.618Z,23.90
2018-08-11T15:18:03.191Z,23.80
2018-08-11T15:20:31.751Z,23.70
2018-08-11T15:23:00.327Z,23.70
2018-08-11T15:25:28.911Z,23.50
2018-08-11T15:27:57.565Z,23.60
2018-08-11T15:30:26.434Z,23.60
2018-08-11T15:35:23.259Z,23.60
2018-08-11T15:37:51.818Z,23.50
2018-08-11T15:40:20.401Z,23.20
2018-08-11T15:42:48.974Z,23.00
2018-08-11T15:45:17.544Z,22.90
2018-08-11T15:47:46.648Z,22.80
2018-08-11T15:50:15.243Z,22.70
2018-08-11T15:52:43.819Z,22.60
2018-08-11T15:55:12.435Z,22.70
2018-08-11T15:57:41.019Z,22.70
2018-08-11T16:00:09.647Z,22.70
2018-08-11T16:02:38.763Z,22.60
2018-08-11T16:05:07.793Z,22.40
2018-08-11T16:07:36.421Z,22.50
2018-08-11T16:10:05.763Z,22.50
2018-08-11T16:12:34.526Z,22.50
2018-08-11T16:15:03.216Z,22.40
2018-08-11T16:17:31.833Z,22.30
2018-08-11T16:20:00.440Z,22.20
2018-08-11T16:22:29.026Z,21.90
2018-08-11T16:24:57.629Z,21.80
2018-08-11T16:27:26.271Z,21.80
2018-08-11T16:29:54.899Z,21.60
2018-08-11T16:32:23.498Z,21.60
2018-08-11T16:34:52.200Z,21.40
2018-08-11T16:37:20.815Z,21.10
2018-08-11T16:39:49.642Z,21.20
2018-08-11T16:42:18.216Z,21.10
2018-08-11T16:44:46.763Z,21.00
2018-08-11T16:47:15.310Z,20.90
2018-08-11T16:49:43.858Z,21.00
2018-08-11T16:52:12.697Z,20.90
2018-08-11T16:54:41.511Z,20.70
2018-08-11T16:57:10.079Z,20.80
2018-08-11T16:59:38.708Z,20.80
2018-08-11T17:02:07.259Z,20.80
2018-08-11T17:04:35.820Z,20.80
2018-08-11T17:07:04.935Z,20.80
2018-08-11T17:09:33.703Z,20.60
2018-08-11T17:12:02.320Z,20.60
2018-08-11T17:14:30.948Z,20.70
2018-08-11T17:16:59.527Z,20.50
2018-08-11T17:19:28.174Z,20.40
2018-08-11T17:21:56.726Z,20.50
2018-08-11T17:24:25.306Z,20.40
2018-08-11T17:26:53.920Z,20.40
2018-08-11T17:29:22.473Z,20.30
2018-08-11T17:31:51.143Z,20.20
2018-08-11T17:34:19.759Z,20.20
2018-08-11T17:36:48.322Z,20.20
2018-08-11T17:39:16.871Z,20.20
2018-08-11T17:41:45.439Z,20.20
2018-08-11T17:44:14.074Z,20.30
2018-08-11T17:46:42.661Z,20.20
2018-08-11T17:49:11.479Z,20.30
2018-08-11T17:51:40.174Z,20.20
2018-08-11T17:54:08.786Z,20.20
2018-08-11T17:56:37.411Z,20.00
2018-08-11T17:59:06.058Z,20.00
2018-08-11T18:01:35.007Z,19.90
2018-08-11T18:04:03.783Z,19.90
2018-08-11T18:06:32.423Z,20.00
2018-08-11T18:09:01.024Z,19.90
2018-08-11T18:11:29.590Z,19.80
2018-08-11T18:13:58.172Z,19.90
2018-08-11T18:16:26.758Z,19.90
2018-08-11T18:18:55.327Z,19.80
2018-08-11T18:21:23.920Z,19.90
2018-08-11T18:23:52.774Z,19.80
2018-08-11T18:26:21.334Z,19.80
2018-08-11T18:28:50.073Z,19.80
2018-08-11T18:38:04.559Z,19.70
2018-08-11T18:40:33.210Z,19.60
2018-08-11T18:43:01.854Z,19.60
2018-08-11T18:45:30.498Z,19.50
2018-08-11T18:47:59.063Z,19.50
2018-08-11T18:50:27.655Z,19.50
2018-08-11T18:52:56.291Z,19.50
2018-08-11T18:55:25.069Z,19.40
2018-08-11T18:57:53.714Z,19.30
2018-08-11T19:00:22.732Z,19.30
2018-08-11T19:02:51.316Z,19.40
2018-08-11T19:05:19.938Z,19.40
2018-08-11T19:07:48.485Z,19.20
2018-08-11T19:10:17.330Z,19.30
2018-08-11T19:12:46.161Z,19.20
2018-08-11T19:15:15.117Z,19.30
2018-08-11T19:17:43.803Z,19.30
2018-08-11T19:20:13.447Z,19.30
2018-08-11T19:22:42.408Z,19.30
2018-08-11T19:25:11.939Z,19.30
2018-08-11T19:27:40.609Z,19.20
2018-08-11T19:30:10.860Z,19.20
2018-08-11T19:32:40.023Z,19.10
2018-08-11T19:35:08.894Z,19.10
2018-08-11T19:37:38.203Z,19.00
2018-08-11T19:40:08.058Z,19.00
2018-08-11T19:42:36.846Z,18.90
2018-08-11T19:45:07.721Z,18.80
2018-08-11T19:47:36.555Z,18.90
2018-08-11T19:50:05.775Z,18.90
2018-08-11T19:52:34.625Z,18.80
2018-08-11T19:55:03.409Z,18.80
2018-08-11T19:57:32.041Z,18.70
2018-08-11T20:00:00.651Z,18.80
2018-08-11T20:02:29.248Z,18.80
2018-08-11T20:04:57.976Z,18.70
2018-08-11T20:07:26.547Z,18.70
2018-08-11T20:09:55.151Z,18.70
2018-08-11T20:12:23.805Z,18.60
2018-08-11T20:14:52.369Z,18.70
2018-08-11T20:17:20.994Z,18.70
2018-08-11T20:19:49.579Z,18.70
2018-08-11T20:22:19.395Z,18.70
2018-08-11T20:24:48.175Z,18.70
2018-08-11T20:27:17.250Z,18.70
2018-08-11T20:29:45.859Z,18.70
2018-08-11T20:32:15.139Z,18.70
2018-08-11T20:34:44.330Z,18.70
2018-08-11T20:37:13.686Z,18.70
2018-08-11T20:39:42.994Z,18.60
2018-08-11T20:42:11.834Z,18.70
2018-08-11T20:46:09.639Z,18.70
2018-08-11T20:48:38.290Z,18.70
2018-08-11T20:51:06.980Z,18.50
2018-08-11T20:53:35.604Z,18.50
2018-08-11T20:56:04.679Z,18.60
2018-08-11T20:58:33.351Z,18.60
2018-08-11T21:01:02.208Z,18.60
2018-08-11T21:03:30.941Z,18.70
2018-08-11T21:05:59.661Z,18.60
2018-08-11T21:08:28.518Z,18.60
2018-08-11T21:10:57.119Z,18.50
2018-08-11T21:13:25.764Z,18.50
2018-08-11T21:15:54.387Z,18.40
2018-08-11T21:18:22.955Z,18.40
2018-08-11T21:20:51.635Z,18.40
2018-08-11T21:23:20.257Z,18.20
2018-08-11T21:25:48.815Z,18.30
2018-08-11T21:28:17.367Z,18.10
2018-08-11T21:30:46.219Z,18.10
2018-08-11T21:33:14.930Z,18.00
2018-08-11T21:35:43.500Z,17.90
2018-08-11T21:38:12.346Z,17.90
2018-08-11T21:40:40.971Z,18.00
2018-08-11T21:43:09.562Z,17.90
2018-08-11T21:45:38.133Z,17.90
2018-08-11T21:48:06.748Z,17.90
2018-08-11T21:50:35.401Z,17.90
2018-08-11T21:53:04.175Z,17.90
2018-08-11T21:55:32.939Z,17.90
2018-08-11T21:58:01.499Z,17.90
2018-08-11T22:00:37.366Z,17.80
2018-08-11T22:03:07.631Z,17.80
2018-08-11T22:05:36.697Z,17.80
2018-08-11T22:08:05.336Z,17.80
2018-08-11T22:10:33.979Z,17.80
2018-08-11T22:13:02.630Z,17.70
2018-08-11T22:15:31.259Z,17.80
2018-08-11T22:17:59.899Z,17.80
2018-08-11T22:20:28.475Z,17.70
2018-08-11T22:22:57.130Z,17.50
2018-08-11T22:25:25.751Z,17.50
2018-08-11T22:27:54.398Z,17.40
2018-08-11T22:30:23.140Z,17.40
2018-08-11T22:32:51.762Z,17.30
2018-08-11T22:35:20.487Z,17.30
2018-08-11T22:37:49.079Z,17.30
2018-08-11T22:40:17.647Z,17.20
2018-08-11T22:42:46.587Z,17.20
2018-08-11T22:45:15.161Z,17.10
2018-08-11T22:47:43.745Z,17.10
2018-08-11T22:50:13.931Z,17.00
2018-08-11T22:52:42.543Z,17.00
2018-08-11T22:55:11.434Z,17.00
2018-08-11T22:57:40.020Z,16.90
2018-08-11T23:00:18.954Z,16.90
2018-08-11T23:02:47.735Z,16.80
2018-08-11T23:05:17.691Z,16.80
2018-08-11T23:07:46.313Z,16.60
2018-08-11T23:10:16.323Z,16.70
2018-08-11T23:12:45.742Z,16.60
2018-08-11T23:15:16.496Z,16.60
2018-08-11T23:17:47.554Z,16.60
2018-08-11T23:20:16.445Z,16.50
2018-08-11T23:22:45.492Z,16.50
2018-08-11T23:25:14.794Z,16.40
2018-08-11T23:27:43.442Z,16.30
2018-08-11T23:30:14.208Z,16.30
2018-08-11T23:32:43.327Z,16.30
2018-08-11T23:35:12.462Z,16.20
2018-08-11T23:37:41.706Z,16.20
2018-08-11T23:40:11.000Z,16.10
2018-08-11T23:42:39.726Z,16.10
2018-08-11T23:45:11.242Z,16.10
2018-08-11T23:47:40.673Z,16.10
2018-08-11T23:50:10.266Z,16.10
2018-08-11T23:52:39.144Z,16.10
2018-08-11T23:55:08.927Z,16.10
2018-08-11T23:57:38.134Z,16.00
